RKNN/KAG METAR and TAF weather

Enter ICAO airport designator
Station Type Date Time Source
RKNN METAR 2020/08/11 00:23 UTC NOAA

RKNN 110023Z 22002KT 8000 -RA BR SCT010 BKN050 23/22 A2978 RMK CIG050


Station Type Date Time Source
RKNN Decoded METAR 2020/08/11 00:23 UTC NOAA

Kangnung Ab, Korea, South (RKNN) 37-45N 128-57E 6M
Aug 10, 2020 - 08:23 PM EDT / 2020.08.11 0023 UTC
Wind: from the SW (220 degrees) at 2 MPH (2 KT):0
Visibility: 4 mile(s):0
Sky conditions: mostly cloudy
Weather: light rain; mist
Temperature: 73 F (23 C)
Dew Point: 71 F (22 C)
Relative Humidity: 94%
Pressure (altimeter): 29.78 in. Hg (1008 hPa)
ob: RKNN 110023Z 22002KT 8000 -RA BR SCT010 BKN050 23/22 A2978 RMK CIG050
cycle: 0

Station Type Date Time Source
RKNN TAF 2013/10/14 20:56 UTC NOAA

TAF
AMD RKNN 142045Z 1420/1524 06006G16KT 4800 -RA BR SCT010 BKN020
BECMG 1423/1424 06006G16KT 3200 -RA BR BKN010 OVC020
BECMG 1511/1512 36010KT 4800 -RA BR BKN025 TX16/1421Z TN07/1520Z

Example: see airport list